Time;durP1;ratioP1;P1;durP2;ratioP2;P2;SDS_P1;SDS_P2;PMS_P1;PMS_P2;Temp;Humidity;BMP_temperature;BMP_pressure;BME280_temperature;BME280_humidity;BME280_pressure;Samples;Min_cycle;Max_cycle;Signal;HPM_P1;HPM_P2
2022/03/18 00:01:51;;;;;;;13.85;6.68;;;4.70;99.90;;;;;;4995227;28;20105;-64
2022/03/18 00:04:17;;;;;;;17.25;7.28;;;4.70;99.90;;;;;;4995826;28;20053;-64
2022/03/18 00:06:43;;;;;;;18.08;7.50;;;4.70;99.90;;;;;;4978466;28;20121;-63
2022/03/18 00:09:08;;;;;;;19.75;8.02;;;4.70;99.90;;;;;;4995519;28;20038;-63
2022/03/18 00:11:34;;;;;;;15.88;7.13;;;4.60;99.90;;;;;;4995122;28;20554;-63
2022/03/18 00:14:02;;;;;;;13.48;6.68;;;4.60;99.90;;;;;;4977901;28;20050;-63
2022/03/18 00:16:28;;;;;;;14.70;6.13;;;4.60;99.90;;;;;;4995988;28;20042;-63
2022/03/18 00:18:55;;;;;;;13.52;6.85;;;4.50;99.90;;;;;;4995578;28;20038;-63
2022/03/18 00:21:21;;;;;;;17.15;6.30;;;4.50;99.90;;;;;;4995219;28;20104;-64
2022/03/18 00:23:47;;;;;;;18.67;7.07;;;4.50;99.90;;;;;;4995325;28;20054;-63
2022/03/18 00:26:13;;;;;;;16.48;7.05;;;4.50;99.90;;;;;;4993915;28;20041;-63
2022/03/18 00:28:39;;;;;;;20.27;7.82;;;4.50;99.90;;;;;;5015137;28;20068;-63
2022/03/18 00:31:06;;;;;;;17.55;6.35;;;4.40;99.90;;;;;;5014766;28;20048;-63
2022/03/18 00:33:31;;;;;;;12.15;6.13;;;4.40;99.90;;;;;;5014838;28;20033;-64
2022/03/18 00:35:57;;;;;;;17.60;6.85;;;4.50;99.90;;;;;;5000263;28;20030;-63
2022/03/18 00:38:23;;;;;;;16.25;6.38;;;4.50;99.90;;;;;;4995267;28;20359;-64
2022/03/18 00:40:50;;;;;;;16.52;6.65;;;4.50;99.90;;;;;;4995177;28;20046;-64
2022/03/18 00:43:16;;;;;;;13.68;5.75;;;4.50;99.90;;;;;;4995273;28;20057;-63
2022/03/18 00:45:42;;;;;;;14.27;6.13;;;4.50;99.90;;;;;;5006051;28;20041;-63
2022/03/18 00:53:36;;;;;;;14.63;6.10;;;4.60;99.90;;;;;;5014127;28;20478;-63
2022/03/18 00:56:02;;;;;;;15.25;6.32;;;4.50;99.90;;;;;;5000134;28;20034;-65
2022/03/18 00:58:28;;;;;;;14.40;6.40;;;4.50;99.90;;;;;;4994891;28;20061;-63
2022/03/18 01:00:55;;;;;;;14.82;6.10;;;4.50;99.90;;;;;;4977787;28;20506;-63
2022/03/18 01:03:21;;;;;;;14.20;6.30;;;4.50;99.90;;;;;;4994462;28;20034;-64
2022/03/18 01:05:46;;;;;;;16.25;6.13;;;4.50;99.90;;;;;;5006087;28;20072;-65
2022/03/18 01:08:12;;;;;;;14.90;6.03;;;4.50;99.90;;;;;;5014412;28;20045;-64
2022/03/18 01:10:38;;;;;;;14.18;6.90;;;4.50;99.90;;;;;;4996587;28;20139;-63
2022/03/18 01:13:04;;;;;;;16.60;5.90;;;4.50;99.90;;;;;;5014668;28;20060;-63
2022/03/18 01:15:30;;;;;;;14.75;6.50;;;4.40;99.90;;;;;;5003756;28;20045;-63
2022/03/18 01:17:56;;;;;;;15.35;6.38;;;4.40;99.90;;;;;;4994320;28;20038;-63
2022/03/18 01:20:21;;;;;;;14.65;6.25;;;4.40;99.90;;;;;;4977531;28;20054;-64
2022/03/18 01:22:47;;;;;;;14.65;6.93;;;4.50;99.90;;;;;;4977380;28;20053;-63
2022/03/18 01:25:12;;;;;;;14.07;6.35;;;4.50;99.90;;;;;;5001610;28;20041;-62
2022/03/18 01:27:39;;;;;;;14.77;5.78;;;4.50;99.90;;;;;;5014259;28;20088;-63
2022/03/18 01:30:05;;;;;;;11.52;6.13;;;4.40;99.90;;;;;;5014044;28;20038;-63
2022/03/18 01:32:33;;;;;;;15.30;5.93;;;4.40;99.90;;;;;;5014082;28;20042;-64
2022/03/18 01:34:58;;;;;;;12.60;5.60;;;4.40;99.90;;;;;;5008577;28;20161;-63
2022/03/18 01:37:24;;;;;;;14.50;5.85;;;4.40;99.90;;;;;;4994511;28;20038;-62
2022/03/18 01:39:49;;;;;;;10.48;5.63;;;4.40;99.90;;;;;;4994490;28;20039;-63
2022/03/18 01:42:15;;;;;;;11.75;5.63;;;4.40;99.90;;;;;;4994380;28;20426;-63
2022/03/18 01:44:42;;;;;;;14.65;5.95;;;4.40;99.90;;;;;;4996610;28;20070;-63
2022/03/18 01:47:09;;;;;;;13.23;5.82;;;4.30;99.90;;;;;;5013971;28;20049;-62
2022/03/18 01:49:35;;;;;;;13.15;5.55;;;4.30;99.90;;;;;;5017011;28;20026;-63
2022/03/18 01:52:01;;;;;;;16.40;6.38;;;4.30;99.90;;;;;;5017984;28;20497;-62
2022/03/18 01:54:45;;;;;;;15.23;5.50;;;4.20;99.90;;;;;;5016113;28;20034;-63
2022/03/18 01:57:12;;;;;;;15.95;6.18;;;4.20;99.90;;;;;;4980794;28;20105;-62
2022/03/18 01:59:38;;;;;;;14.13;6.22;;;4.20;99.90;;;;;;4998048;28;20081;-62
2022/03/18 02:02:04;;;;;;;15.80;6.07;;;4.20;99.90;;;;;;4997603;28;20046;-63
2022/03/18 02:04:30;;;;;;;12.55;6.15;;;4.10;99.90;;;;;;4998277;28;20042;-63
2022/03/18 02:06:57;;;;;;;13.60;6.03;;;4.10;99.90;;;;;;5017610;28;20038;-64
2022/03/18 02:09:22;;;;;;;13.95;6.80;;;4.10;99.90;;;;;;5017179;28;20429;-66
2022/03/18 02:11:48;;;;;;;14.80;6.47;;;4.10;99.90;;;;;;5017165;28;20054;-62
2022/03/18 02:14:28;;;;;;;12.27;6.20;;;4.00;99.90;;;;;;5017245;28;20088;-62
2022/03/18 02:16:53;;;;;;;12.65;5.97;;;4.00;99.90;;;;;;4997698;28;20061;-63
2022/03/18 02:19:19;;;;;;;14.23;6.28;;;4.00;99.90;;;;;;4997506;28;20070;-63
2022/03/18 02:21:48;;;;;;;13.02;6.03;;;4.00;99.90;;;;;;4997915;28;20039;-63
2022/03/18 02:24:13;;;;;;;14.13;6.32;;;3.90;99.90;;;;;;4997638;28;20118;-63
2022/03/18 02:26:39;;;;;;;14.88;6.38;;;3.90;99.90;;;;;;5015858;28;20062;-62
2022/03/18 02:29:06;;;;;;;15.50;6.55;;;3.90;99.90;;;;;;5017060;28;20375;-63
2022/03/18 02:31:32;;;;;;;12.68;5.85;;;3.90;99.90;;;;;;5016734;28;20121;-63
2022/03/18 02:33:58;;;;;;;14.73;6.47;;;3.80;99.90;;;;;;5016781;28;20116;-63
2022/03/18 02:36:23;;;;;;;13.48;6.07;;;3.90;99.90;;;;;;5000687;28;20042;-63
2022/03/18 02:38:49;;;;;;;11.38;5.78;;;3.80;99.90;;;;;;4997371;28;20042;-62
2022/03/18 02:41:14;;;;;;;10.48;5.53;;;3.80;99.90;;;;;;4997568;28;20034;-63
2022/03/18 02:43:41;;;;;;;15.75;6.57;;;3.80;99.90;;;;;;4996903;28;20460;-63
2022/03/18 02:46:06;;;;;;;12.23;6.10;;;3.80;99.90;;;;;;4997376;28;20053;-63
2022/03/18 02:48:32;;;;;;;13.43;6.15;;;3.80;99.90;;;;;;4997256;28;20042;-62
2022/03/18 02:50:57;;;;;;;14.65;6.22;;;3.80;99.90;;;;;;4996980;28;20113;-63
2022/03/18 02:53:23;;;;;;;16.27;5.00;;;3.80;99.90;;;;;;4996556;28;20042;-63
2022/03/18 02:55:49;;;;;;;12.38;5.68;;;3.80;99.90;;;;;;5008415;28;20057;-63
2022/03/18 02:58:14;;;;;;;18.35;6.03;;;3.80;99.90;;;;;;5016798;28;20194;-63
2022/03/18 03:00:40;;;;;;;11.43;5.78;;;3.80;99.90;;;;;;5016125;28;20136;-62
2022/03/18 03:03:06;;;;;;;12.55;5.53;;;3.80;99.90;;;;;;5016527;28;20111;-62
2022/03/18 03:08:16;;;;;;;16.83;6.30;;;3.80;99.90;;;;;;4996911;28;20077;-63
2022/03/18 03:10:43;;;;;;;15.07;5.70;;;3.80;99.90;;;;;;4996331;28;20077;-63
2022/03/18 03:13:10;;;;;;;18.40;7.03;;;3.80;99.90;;;;;;4996872;28;20431;-63
2022/03/18 03:15:38;;;;;;;13.70;6.05;;;3.80;99.90;;;;;;4988078;28;20060;-63
2022/03/18 03:18:05;;;;;;;17.10;6.30;;;3.80;99.90;;;;;;5016059;28;20077;-64
2022/03/18 03:20:31;;;;;;;18.77;6.32;;;3.70;99.90;;;;;;4998586;28;20045;-63
2022/03/18 03:22:57;;;;;;;10.93;5.60;;;3.70;99.90;;;;;;5016074;28;20037;-62
2022/03/18 03:25:23;;;;;;;12.73;5.63;;;3.70;99.90;;;;;;5008061;28;20046;-64
2022/03/18 03:27:53;;;;;;;12.98;6.10;;;3.70;99.90;;;;;;4996658;28;20054;-62
2022/03/18 03:30:19;;;;;;;13.77;6.45;;;3.70;99.90;;;;;;4996391;28;20042;-63
2022/03/18 03:32:44;;;;;;;15.38;5.80;;;3.60;99.90;;;;;;4996535;28;20047;-64
2022/03/18 03:35:10;;;;;;;14.82;6.22;;;3.70;99.90;;;;;;5001505;28;20045;-62
2022/03/18 03:37:37;;;;;;;13.52;6.78;;;3.70;99.90;;;;;;5015838;28;20053;-63
2022/03/18 03:40:04;;;;;;;12.55;5.85;;;3.70;99.90;;;;;;5015568;28;20045;-62
2022/03/18 03:42:30;;;;;;;14.45;6.18;;;3.70;99.90;;;;;;5015874;28;20057;-63
2022/03/18 03:44:55;;;;;;;14.88;6.68;;;3.70;99.90;;;;;;5011450;28;20344;-64
2022/03/18 03:47:21;;;;;;;17.60;6.55;;;3.70;99.90;;;;;;4978529;28;20042;-62
2022/03/18 03:49:47;;;;;;;13.63;6.30;;;3.70;99.90;;;;;;4996033;28;20078;-63
2022/03/18 03:52:13;;;;;;;14.07;6.63;;;3.70;99.90;;;;;;4995666;28;20439;-62
2022/03/18 03:54:40;;;;;;;14.95;6.97;;;3.70;99.90;;;;;;4996589;28;20053;-63
2022/03/18 03:57:07;;;;;;;13.75;6.55;;;3.70;99.90;;;;;;5015318;28;20048;-63
2022/03/18 03:59:32;;;;;;;19.02;6.93;;;3.80;99.90;;;;;;5014919;28;20458;-62
2022/03/18 04:01:58;;;;;;;15.25;6.70;;;3.80;99.90;;;;;;5014962;28;20120;-62
2022/03/18 04:04:25;;;;;;;17.08;7.40;;;3.80;99.90;;;;;;5014993;28;20133;-62
2022/03/18 04:06:51;;;;;;;15.25;6.63;;;3.70;99.90;;;;;;4995978;28;20126;-62
2022/03/18 04:09:16;;;;;;;14.55;7.05;;;3.70;99.90;;;;;;4995368;28;20176;-64
2022/03/18 04:11:42;;;;;;;13.70;6.28;;;3.70;99.90;;;;;;4994406;28;20054;-63
2022/03/18 04:14:08;;;;;;;14.43;7.05;;;3.70;99.90;;;;;;4995157;28;20104;-62
2022/03/18 04:16:34;;;;;;;14.85;7.10;;;3.70;99.90;;;;;;5011938;28;20038;-64
2022/03/18 04:19:00;;;;;;;15.95;6.80;;;3.70;99.90;;;;;;5014710;28;20045;-62
2022/03/18 04:21:25;;;;;;;17.23;7.57;;;3.70;99.90;;;;;;5014798;28;20477;-63
2022/03/18 04:23:51;;;;;;;16.73;7.22;;;3.70;99.90;;;;;;5014546;28;20041;-63
2022/03/18 04:26:17;;;;;;;15.77;6.90;;;3.60;99.90;;;;;;5000290;28;20097;-63
2022/03/18 04:28:43;;;;;;;16.38;6.93;;;3.60;99.90;;;;;;4995568;28;20450;-62
2022/03/18 04:31:09;;;;;;;14.43;7.00;;;3.60;99.90;;;;;;4994772;28;20089;-62
2022/03/18 04:33:34;;;;;;;14.85;6.85;;;3.60;99.90;;;;;;4994817;28;20066;-62
2022/03/18 04:36:00;;;;;;;12.15;6.82;;;3.60;99.90;;;;;;5006942;28;20038;-62
2022/03/18 04:38:26;;;;;;;13.68;7.40;;;3.60;99.90;;;;;;5014460;28;20030;-63
2022/03/18 04:40:51;;;;;;;17.10;7.85;;;3.60;99.90;;;;;;5014266;28;20075;-62
2022/03/18 04:43:17;;;;;;;16.50;8.18;;;3.60;99.90;;;;;;5014304;28;20129;-63
2022/03/18 04:45:44;;;;;;;14.75;7.72;;;3.60;99.90;;;;;;5004448;28;20042;-63
2022/03/18 04:48:09;;;;;;;18.95;8.00;;;3.60;99.90;;;;;;4994792;28;20046;-62
2022/03/18 04:50:35;;;;;;;15.82;8.02;;;3.60;99.90;;;;;;4994902;28;20061;-62
2022/03/18 04:53:01;;;;;;;18.33;8.05;;;3.60;99.90;;;;;;4994861;28;20044;-62
2022/03/18 04:55:26;;;;;;;18.00;8.07;;;3.60;99.90;;;;;;5001564;28;20050;-63
2022/03/18 04:57:52;;;;;;;18.00;9.15;;;3.60;99.90;;;;;;5014050;28;20069;-62
2022/03/18 05:00:20;;;;;;;16.92;8.90;;;3.50;99.90;;;;;;5014339;28;20045;-62
2022/03/18 05:02:46;;;;;;;20.80;8.45;;;3.50;99.90;;;;;;5014366;28;20080;-64
2022/03/18 05:05:11;;;;;;;16.48;8.27;;;3.40;99.90;;;;;;4991093;28;20463;-62
2022/03/18 05:07:41;;;;;;;14.95;8.02;;;3.40;99.90;;;;;;4994775;28;20046;-62
2022/03/18 05:10:08;;;;;;;14.30;8.30;;;3.40;99.90;;;;;;4977158;28;20571;-63
2022/03/18 05:12:33;;;;;;;17.10;8.48;;;3.40;99.90;;;;;;4994210;28;20054;-63
2022/03/18 05:14:59;;;;;;;15.38;8.32;;;3.40;99.90;;;;;;4997447;28;20046;-63
2022/03/18 05:17:25;;;;;;;16.42;8.55;;;3.40;99.90;;;;;;4997190;28;20038;-63
2022/03/18 05:19:51;;;;;;;16.05;8.90;;;3.40;99.90;;;;;;5013908;28;20077;-63
2022/03/18 05:22:16;;;;;;;16.73;8.98;;;3.40;99.90;;;;;;5015313;28;20052;-64
2022/03/18 05:24:42;;;;;;;15.32;8.30;;;3.40;99.90;;;;;;5016297;28;20046;-62
2022/03/18 05:27:08;;;;;;;18.15;8.95;;;3.40;99.90;;;;;;4998380;28;20046;-62
2022/03/18 05:29:35;;;;;;;18.08;8.55;;;3.40;99.90;;;;;;4998548;28;20034;-62
2022/03/18 05:32:01;;;;;;;18.63;8.73;;;3.30;99.90;;;;;;4998065;28;20069;-62
2022/03/18 05:34:28;;;;;;;16.05;8.85;;;3.30;99.90;;;;;;4997959;28;20448;-63
2022/03/18 05:36:54;;;;;;;14.57;8.57;;;3.20;99.90;;;;;;5017148;28;20454;-62
2022/03/18 05:39:19;;;;;;;18.27;8.93;;;3.20;99.90;;;;;;5017743;28;20510;-62
2022/03/18 05:41:45;;;;;;;22.63;9.23;;;3.20;99.90;;;;;;5018100;28;20121;-62
2022/03/18 05:44:11;;;;;;;18.13;9.23;;;3.20;99.90;;;;;;5017583;28;20168;-62
2022/03/18 05:46:37;;;;;;;18.10;9.60;;;3.20;99.90;;;;;;5001038;28;20061;-63
2022/03/18 05:49:03;;;;;;;19.17;9.88;;;3.10;99.90;;;;;;4998185;28;20436;-62
2022/03/18 05:51:30;;;;;;;17.20;9.02;;;3.20;99.90;;;;;;4980597;28;20049;-63
2022/03/18 05:53:56;;;;;;;19.40;9.80;;;3.10;99.90;;;;;;4997570;28;20038;-63
2022/03/18 05:59:07;;;;;;;20.60;10.27;;;3.20;99.90;;;;;;4998130;28;20348;-65
2022/03/18 06:01:37;;;;;;;18.10;10.13;;;3.10;99.90;;;;;;5017062;28;20399;-63
2022/03/18 06:04:10;;;;;;;16.63;9.95;;;3.10;99.90;;;;;;5016971;28;20042;-63
2022/03/18 06:06:37;;;;;;;16.70;10.07;;;3.20;99.90;;;;;;5016161;28;20050;-62
2022/03/18 06:11:51;;;;;;;15.10;9.38;;;3.20;99.90;;;;;;4999156;28;20088;-62
2022/03/18 06:14:18;;;;;;;20.48;9.15;;;3.30;99.90;;;;;;5016284;28;20374;-64
2022/03/18 06:16:44;;;;;;;19.35;9.88;;;3.30;99.90;;;;;;5016198;28;20057;-64
2022/03/18 06:19:11;;;;;;;19.08;11.10;;;3.30;99.90;;;;;;5017084;28;20045;-62
2022/03/18 06:21:37;;;;;;;21.67;10.15;;;3.30;99.90;;;;;;5017208;28;20049;-62
2022/03/18 06:24:03;;;;;;;18.05;11.13;;;3.40;99.90;;;;;;5016936;28;20451;-64
2022/03/18 06:26:30;;;;;;;17.08;10.30;;;3.50;99.90;;;;;;4998210;28;20497;-63
2022/03/18 06:28:56;;;;;;;21.38;11.38;;;3.80;99.90;;;;;;5016872;28;20459;-62
2022/03/18 06:31:22;;;;;;;18.77;10.70;;;4.10;99.90;;;;;;5016705;28;20038;-62
2022/03/18 06:33:47;;;;;;;19.38;12.27;;;4.40;99.90;;;;;;5016012;28;20046;-62
2022/03/18 06:36:14;;;;;;;23.50;11.02;;;4.70;99.90;;;;;;5004374;28;20035;-62
2022/03/18 06:38:40;;;;;;;22.42;11.65;;;5.00;99.90;;;;;;4997467;28;20038;-63
2022/03/18 06:41:06;;;;;;;17.67;11.30;;;5.30;99.90;;;;;;4997347;28;20042;-62
2022/03/18 06:43:32;;;;;;;21.60;12.32;;;5.60;99.90;;;;;;4996928;28;20050;-62
2022/03/18 06:45:57;;;;;;;22.40;11.30;;;5.80;99.90;;;;;;5003102;28;20030;-62
2022/03/18 06:48:24;;;;;;;21.65;11.32;;;6.10;99.90;;;;;;4998438;28;20112;-63
2022/03/18 06:50:50;;;;;;;20.73;11.57;;;6.30;99.90;;;;;;4996759;28;20447;-62
2022/03/18 06:53:15;;;;;;;21.42;11.75;;;6.30;99.90;;;;;;4996661;28;20045;-62
2022/03/18 06:55:41;;;;;;;19.52;11.27;;;6.30;99.90;;;;;;5004232;28;20030;-66
2022/03/18 06:58:07;;;;;;;23.98;12.85;;;6.30;99.90;;;;;;4994607;28;20045;-63
2022/03/18 07:00:32;;;;;;;20.02;12.18;;;6.20;99.90;;;;;;4996616;28;20423;-62
2022/03/18 07:02:58;;;;;;;20.85;11.75;;;6.10;99.90;;;;;;4996552;28;20054;-63
2022/03/18 07:05:24;;;;;;;19.65;11.93;;;6.00;99.90;;;;;;4996295;28;20042;-63
2022/03/18 07:07:50;;;;;;;19.52;11.13;;;6.00;99.90;;;;;;4977921;28;20047;-62
2022/03/18 07:10:15;;;;;;;21.00;11.48;;;6.10;99.90;;;;;;4995637;28;20034;-63
2022/03/18 07:12:42;;;;;;;24.00;11.70;;;6.10;99.90;;;;;;4994941;28;20046;-63
2022/03/18 07:15:08;;;;;;;18.70;12.13;;;6.20;99.90;;;;;;4995356;28;20170;-63
2022/03/18 07:20:18;;;;;;;19.95;11.80;;;6.30;99.90;;;;;;4994932;28;20474;-63
2022/03/18 07:22:44;;;;;;;22.30;12.60;;;6.40;99.90;;;;;;4995971;28;20046;-63
2022/03/18 07:25:10;;;;;;;21.23;12.85;;;6.50;99.90;;;;;;4995991;28;20038;-63
2022/03/18 07:27:35;;;;;;;20.92;12.70;;;6.50;99.90;;;;;;5012730;28;20029;-63
2022/03/18 07:30:04;;;;;;;23.70;12.20;;;6.60;99.90;;;;;;4998223;28;20038;-64
2022/03/18 07:32:30;;;;;;;17.55;12.13;;;6.70;99.90;;;;;;5015793;28;20116;-64
2022/03/18 07:34:55;;;;;;;19.48;12.80;;;6.70;99.90;;;;;;5014443;28;20121;-64
2022/03/18 07:37:21;;;;;;;21.77;12.82;;;6.80;99.90;;;;;;5015732;28;20114;-63
2022/03/18 07:39:47;;;;;;;22.70;13.13;;;6.90;99.90;;;;;;5015797;28;20057;-64
2022/03/18 07:42:13;;;;;;;20.75;13.30;;;7.00;99.90;;;;;;5014537;28;20064;-63
2022/03/18 07:44:38;;;;;;;24.17;13.13;;;7.10;99.90;;;;;;4995808;28;20042;-63
2022/03/18 07:47:04;;;;;;;24.13;14.18;;;7.10;99.90;;;;;;4996637;28;20375;-65
2022/03/18 07:49:30;;;;;;;25.98;16.05;;;7.20;99.90;;;;;;4998126;28;20044;-65
2022/03/18 07:51:56;;;;;;;37.33;19.38;;;7.30;99.90;;;;;;5015515;28;20049;-64
2022/03/18 07:54:21;;;;;;;32.08;19.80;;;7.40;99.90;;;;;;5014956;28;20048;-64
2022/03/18 07:56:47;;;;;;;35.92;20.52;;;7.40;99.90;;;;;;4981041;28;20210;-64
2022/03/18 07:59:13;;;;;;;38.78;23.15;;;7.60;99.90;;;;;;4996308;28;20160;-64
2022/03/18 08:01:41;;;;;;;51.05;26.10;;;7.60;99.90;;;;;;5014951;28;20414;-64
2022/03/18 08:04:09;;;;;;;62.03;33.35;;;7.70;99.90;;;;;;5014888;28;20108;-64
2022/03/18 08:06:35;;;;;;;57.67;31.65;;;7.70;99.90;;;;;;5011823;28;20065;-62
2022/03/18 08:09:00;;;;;;;59.88;32.78;;;7.80;99.90;;;;;;5011147;28;20534;-63
2022/03/18 08:11:26;;;;;;;60.72;32.63;;;7.90;99.90;;;;;;4993739;28;20081;-63
2022/03/18 08:13:52;;;;;;;52.17;33.67;;;7.90;99.90;;;;;;4993583;28;20038;-62
2022/03/18 08:16:18;;;;;;;50.65;30.33;;;8.00;99.90;;;;;;4995277;28;20049;-63
2022/03/18 08:18:44;;;;;;;56.45;30.10;;;8.00;99.90;;;;;;4995335;28;20050;-63
2022/03/18 08:21:10;;;;;;;48.50;28.77;;;8.10;99.90;;;;;;4995182;28;20046;-63
2022/03/18 08:23:36;;;;;;;50.25;25.88;;;8.20;99.90;;;;;;4977985;28;20368;-63
2022/03/18 08:26:01;;;;;;;43.67;23.33;;;8.20;99.90;;;;;;4995532;28;20528;-65
2022/03/18 08:28:27;;;;;;;48.03;23.60;;;8.20;99.90;;;;;;4977796;28;20054;-64
2022/03/18 08:30:53;;;;;;;45.08;24.27;;;8.30;99.90;;;;;;4994964;28;20046;-64
2022/03/18 08:33:19;;;;;;;45.38;24.65;;;8.40;99.90;;;;;;4995209;28;20034;-63
2022/03/18 08:35:45;;;;;;;36.15;20.60;;;8.40;99.90;;;;;;5005871;28;20452;-64
2022/03/18 08:38:11;;;;;;;39.53;21.60;;;8.50;99.90;;;;;;4994750;28;20038;-65
2022/03/18 08:40:38;;;;;;;37.92;20.58;;;8.60;99.90;;;;;;4977718;28;20108;-64
2022/03/18 08:43:07;;;;;;;37.08;20.80;;;8.70;99.90;;;;;;4994628;28;20463;-64
2022/03/18 08:45:33;;;;;;;33.70;20.75;;;8.70;99.90;;;;;;5000533;28;20117;-64
2022/03/18 08:47:59;;;;;;;39.67;20.55;;;8.80;99.90;;;;;;5013906;28;20478;-64
2022/03/18 08:50:25;;;;;;;35.60;21.05;;;8.90;99.90;;;;;;5014415;28;20045;-65
2022/03/18 08:52:53;;;;;;;38.25;21.77;;;9.00;99.90;;;;;;5009234;28;20037;-63
2022/03/18 08:55:20;;;;;;;36.15;21.40;;;9.00;99.90;;;;;;4977288;28;20042;-63
2022/03/18 08:57:46;;;;;;;38.53;21.85;;;9.20;99.90;;;;;;4977243;28;20121;-63
2022/03/18 09:00:17;;;;;;;36.03;20.88;;;9.30;99.90;;;;;;4994751;28;20038;-64
2022/03/18 09:02:44;;;;;;;35.63;20.00;;;9.50;99.90;;;;;;4994799;28;20054;-63
2022/03/18 09:05:11;;;;;;;36.88;19.65;;;9.60;99.90;;;;;;4996847;28;20438;-64
2022/03/18 09:07:38;;;;;;;32.85;18.13;;;9.80;99.90;;;;;;5013976;28;20537;-63
2022/03/18 09:10:08;;;;;;;28.52;16.83;;;10.00;99.90;;;;;;5014121;28;20034;-64
2022/03/18 09:12:33;;;;;;;30.40;17.08;;;10.10;99.90;;;;;;5013732;28;20054;-63
2022/03/18 09:14:59;;;;;;;32.10;17.15;;;10.20;99.90;;;;;;5011966;28;20382;-63
2022/03/18 09:17:25;;;;;;;26.83;14.70;;;10.40;99.90;;;;;;4994383;28;20105;-65
2022/03/18 09:19:51;;;;;;;25.13;14.60;;;10.40;99.90;;;;;;4994564;28;20042;-65
2022/03/18 09:22:17;;;;;;;26.80;13.43;;;10.30;99.90;;;;;;4995298;28;20053;-65
2022/03/18 09:24:44;;;;;;;24.58;13.23;;;10.40;99.90;;;;;;4994102;28;20117;-65
2022/03/18 09:27:11;;;;;;;23.90;13.25;;;10.70;99.90;;;;;;4994584;28;20042;-65
2022/03/18 09:29:37;;;;;;;25.23;14.18;;;10.70;99.90;;;;;;4994188;28;20471;-64
2022/03/18 09:32:04;;;;;;;23.67;13.30;;;10.80;99.90;;;;;;4994016;28;20475;-64
2022/03/18 09:34:29;;;;;;;21.10;12.02;;;11.10;99.90;;;;;;4986707;28;20056;-64
2022/03/18 09:36:57;;;;;;;24.92;14.02;;;11.20;99.90;;;;;;5013073;28;20034;-64
2022/03/18 09:39:25;;;;;;;25.77;11.88;;;11.40;99.90;;;;;;5013828;28;20056;-63
2022/03/18 09:41:51;;;;;;;20.15;11.82;;;11.50;99.90;;;;;;5013826;28;20037;-64
2022/03/18 09:44:17;;;;;;;23.05;11.32;;;11.60;99.90;;;;;;5013630;28;20037;-66
2022/03/18 09:46:47;;;;;;;24.42;10.43;;;11.80;99.90;;;;;;4998277;28;20108;-65
2022/03/18 09:49:17;;;;;;;28.20;14.40;;;11.90;99.90;;;;;;4977066;28;20046;-64
2022/03/18 09:51:45;;;;;;;26.45;13.20;;;12.00;99.90;;;;;;4994230;28;20097;-66
2022/03/18 09:54:12;;;;;;;18.90;10.70;;;12.10;99.90;;;;;;4993839;28;20069;-64
2022/03/18 09:56:44;;;;;;;21.35;11.48;;;12.20;99.90;;;;;;5008480;28;20121;-65
2022/03/18 09:59:10;;;;;;;28.83;15.45;;;12.30;99.90;;;;;;5013326;28;20473;-64
2022/03/18 10:01:36;;;;;;;16.58;10.57;;;12.50;99.90;;;;;;5013334;28;20136;-64
2022/03/18 10:04:04;;;;;;;19.80;9.63;;;12.50;99.90;;;;;;5013224;28;20046;-64
2022/03/18 10:06:31;;;;;;;22.05;11.20;;;12.70;99.90;;;;;;4995302;28;20046;-64
2022/03/18 10:08:59;;;;;;;18.65;10.18;;;12.70;99.90;;;;;;4996630;28;20574;-64
2022/03/18 10:11:30;;;;;;;17.55;10.02;;;12.80;99.90;;;;;;5016523;28;20372;-65
2022/03/18 10:14:05;;;;;;;20.55;10.27;;;12.80;99.90;;;;;;5017013;28;20050;-64
2022/03/18 10:16:39;;;;;;;24.02;10.32;;;12.90;99.90;;;;;;5003602;28;20096;-65
2022/03/18 10:19:14;;;;;;;20.60;10.93;;;12.90;99.90;;;;;;4980218;28;20043;-65
2022/03/18 10:22:03;;;;;;;17.92;9.20;;;13.00;99.90;;;;;;4980190;28;20391;-65
2022/03/18 10:24:37;;;;;;;17.67;8.18;;;13.20;99.90;;;;;;4997310;28;20077;-65
2022/03/18 10:27:11;;;;;;;15.15;7.13;;;13.20;99.90;;;;;;4997379;28;20497;-65
2022/03/18 10:29:46;;;;;;;14.52;7.60;;;13.40;99.90;;;;;;5016974;28;20403;-65
2022/03/18 10:32:14;;;;;;;16.95;8.68;;;13.40;99.90;;;;;;5016953;28;20104;-65
2022/03/18 10:37:41;;;;;;;15.32;7.88;;;13.20;99.90;;;;;;4997157;28;20061;-65
2022/03/18 10:40:08;;;;;;;14.77;6.88;;;13.30;99.90;;;;;;4980147;28;20085;-65
2022/03/18 10:42:34;;;;;;;14.73;8.27;;;13.50;99.90;;;;;;4979786;28;20046;-65
2022/03/18 10:45:01;;;;;;;18.75;8.32;;;13.50;99.90;;;;;;4980329;28;20061;-65
2022/03/18 10:47:38;;;;;;;19.02;9.13;;;13.60;99.90;;;;;;5016227;28;20478;-65
2022/03/18 10:50:26;;;;;;;13.40;8.13;;;13.70;99.90;;;;;;5016657;28;20108;-64
2022/03/18 10:52:58;;;;;;;19.48;8.77;;;13.70;99.90;;;;;;5016581;28;20030;-65
2022/03/18 10:55:44;;;;;;;19.85;8.88;;;13.80;99.90;;;;;;4998060;28;20111;-65
2022/03/18 10:58:12;;;;;;;16.35;7.45;;;13.90;99.90;;;;;;4998737;28;20479;-65
2022/03/18 11:00:43;;;;;;;13.50;8.10;;;14.00;99.90;;;;;;5016435;28;20056;-66
2022/03/18 11:03:09;;;;;;;16.77;7.50;;;14.00;99.90;;;;;;4998963;28;20078;-66
2022/03/18 11:05:40;;;;;;;14.60;7.20;;;14.10;99.90;;;;;;5003389;28;20046;-67
2022/03/18 11:08:09;;;;;;;13.93;7.13;;;14.20;99.90;;;;;;4978086;28;20089;-66
2022/03/18 11:13:23;;;;;;;12.30;6.72;;;14.30;99.90;;;;;;4994949;28;20047;-66
2022/03/18 11:15:50;;;;;;;11.52;6.85;;;14.40;99.90;;;;;;4995525;28;20038;-66
2022/03/18 11:18:16;;;;;;;13.02;7.07;;;14.50;99.90;;;;;;4995190;28;20038;-68
2022/03/18 11:20:43;;;;;;;14.70;7.80;;;14.50;99.90;;;;;;4995261;28;20030;-66
2022/03/18 11:23:28;;;;;;;13.20;6.97;;;14.60;99.90;;;;;;5015720;28;20042;-64
2022/03/18 11:25:56;;;;;;;12.52;6.63;;;14.60;99.90;;;;;;5014266;28;20398;-65
2022/03/18 11:28:22;;;;;;;13.73;7.43;;;14.70;99.90;;;;;;4998457;28;20108;-65
2022/03/18 11:31:00;;;;;;;13.02;6.97;;;14.60;99.90;;;;;;4996154;28;20042;-66
2022/03/18 11:33:26;;;;;;;15.10;7.53;;;14.70;99.90;;;;;;4978361;28;20050;-66
2022/03/18 11:35:54;;;;;;;15.60;7.28;;;14.70;99.90;;;;;;4979155;28;20038;-66
2022/03/18 11:38:25;;;;;;;14.05;7.80;;;14.70;99.90;;;;;;4996051;28;20125;-66
2022/03/18 11:40:58;;;;;;;15.80;6.95;;;14.70;99.90;;;;;;5011589;28;20057;-67
2022/03/18 11:43:30;;;;;;;11.32;5.78;;;14.60;99.90;;;;;;5015215;28;20057;-67
2022/03/18 11:46:14;;;;;;;12.02;5.43;;;14.70;99.90;;;;;;4996883;28;20052;-66
2022/03/18 11:48:52;;;;;;;13.57;7.30;;;14.80;99.90;;;;;;5014741;28;20074;-66
2022/03/18 11:51:27;;;;;;;15.38;6.05;;;14.90;99.90;;;;;;5015303;28;20056;-67
2022/03/18 11:53:55;;;;;;;15.35;6.65;;;14.90;99.90;;;;;;5014829;28;20049;-67
2022/03/18 11:56:23;;;;;;;12.82;6.82;;;15.00;99.90;;;;;;5014520;28;20367;-68
2022/03/18 11:58:49;;;;;;;13.68;5.38;;;15.10;99.90;;;;;;4997818;28;20471;-66
2022/03/18 12:01:38;;;;;;;13.57;5.93;;;15.30;99.90;;;;;;5015166;28;20049;-66
2022/03/18 12:04:05;;;;;;;14.10;5.93;;;15.30;99.90;;;;;;5014857;28;20117;-66
2022/03/18 12:06:31;;;;;;;10.45;5.60;;;15.40;99.90;;;;;;5002050;28;20046;-66
2022/03/18 12:08:58;;;;;;;15.50;6.35;;;15.20;99.90;;;;;;4995498;28;20407;-66
2022/03/18 12:11:24;;;;;;;13.20;6.15;;;15.20;99.90;;;;;;4994936;28;20057;-67
2022/03/18 12:13:50;;;;;;;12.35;6.78;;;15.20;99.90;;;;;;4994846;28;20050;-66
2022/03/18 12:16:19;;;;;;;11.93;5.63;;;15.30;99.90;;;;;;5005354;28;20117;-67
2022/03/18 12:18:45;;;;;;;11.55;5.10;;;15.40;99.90;;;;;;4997555;28;20041;-67
2022/03/18 12:21:11;;;;;;;14.77;5.35;;;15.50;99.90;;;;;;5014808;28;20038;-67
2022/03/18 12:23:37;;;;;;;13.30;4.53;;;15.60;99.90;;;;;;5014372;28;20111;-66
2022/03/18 12:26:06;;;;;;;10.00;4.20;;;15.60;99.90;;;;;;5005985;28;20038;-66
2022/03/18 12:28:45;;;;;;;9.40;3.70;;;15.80;99.90;;;;;;4977774;28;20046;-67
2022/03/18 12:31:19;;;;;;;7.35;3.65;;;15.90;99.90;;;;;;4994442;28;20046;-66
2022/03/18 12:33:45;;;;;;;14.73;5.10;;;16.00;99.90;;;;;;4998468;28;20037;-67
2022/03/18 12:36:13;;;;;;;13.63;4.20;;;15.90;99.90;;;;;;5004385;28;20046;-66
2022/03/18 12:38:45;;;;;;;12.05;5.07;;;16.00;99.90;;;;;;4977642;28;20042;-67
2022/03/18 12:41:12;;;;;;;10.80;4.40;;;16.20;99.90;;;;;;4980802;28;20439;-66
2022/03/18 12:43:37;;;;;;;12.60;4.82;;;15.90;99.90;;;;;;5007451;28;20038;-67
2022/03/18 12:46:04;;;;;;;9.90;3.80;;;15.90;99.90;;;;;;4996103;28;20034;-66
2022/03/18 12:48:30;;;;;;;10.88;4.38;;;15.90;99.90;;;;;;5013514;28;20045;-67
2022/03/18 12:50:58;;;;;;;11.77;4.18;;;16.10;99.90;;;;;;4995160;28;20099;-67
2022/03/18 12:53:24;;;;;;;9.30;4.15;;;16.20;99.90;;;;;;5012292;28;20069;-67
2022/03/18 12:55:55;;;;;;;11.60;4.22;;;16.30;99.90;;;;;;5011727;28;20045;-67
2022/03/18 12:58:23;;;;;;;8.48;3.88;;;16.30;99.90;;;;;;5012223;28;20465;-68
2022/03/18 13:00:54;;;;;;;12.60;4.72;;;16.50;99.90;;;;;;4995362;28;20049;-67
2022/03/18 13:03:25;;;;;;;10.15;4.40;;;16.70;99.90;;;;;;5012874;28;20121;-69